sensor_id;sensor_type;location;lat;lon;timestamp;P1;durP1;ratioP1;P2;durP2;ratioP2
45842;SDS011;31563;51.744;8.252;2023-08-31T00:02:15;6.57;;;4.07;;
45842;SDS011;31563;51.744;8.252;2023-08-31T00:04:43;5.05;;;3.45;;
45842;SDS011;31563;51.744;8.252;2023-08-31T00:07:11;4.25;;;3.78;;
45842;SDS011;31563;51.744;8.252;2023-08-31T00:09:39;5.53;;;3.50;;
45842;SDS011;31563;51.744;8.252;2023-08-31T00:12:07;5.90;;;4.00;;
45842;SDS011;31563;51.744;8.252;2023-08-31T00:14:35;4.28;;;3.22;;
45842;SDS011;31563;51.744;8.252;2023-08-31T00:17:05;6.32;;;3.42;;
45842;SDS011;31563;51.744;8.252;2023-08-31T00:19:32;5.60;;;3.70;;
45842;SDS011;31563;51.744;8.252;2023-08-31T00:22:01;5.75;;;3.67;;
45842;SDS011;31563;51.744;8.252;2023-08-31T00:24:30;4.65;;;3.60;;
45842;SDS011;31563;51.744;8.252;2023-08-31T00:27:02;4.72;;;3.55;;
45842;SDS011;31563;51.744;8.252;2023-08-31T00:32:00;7.28;;;3.88;;
45842;SDS011;31563;51.744;8.252;2023-08-31T00:34:30;7.28;;;3.40;;
45842;SDS011;31563;51.744;8.252;2023-08-31T00:36:58;7.30;;;4.20;;
45842;SDS011;31563;51.744;8.252;2023-08-31T00:39:26;5.93;;;3.90;;
45842;SDS011;31563;51.744;8.252;2023-08-31T00:41:54;5.78;;;3.53;;
45842;SDS011;31563;51.744;8.252;2023-08-31T00:44:22;6.88;;;3.58;;
45842;SDS011;31563;51.744;8.252;2023-08-31T00:46:50;5.15;;;3.30;;
45842;SDS011;31563;51.744;8.252;2023-08-31T00:49:19;6.13;;;3.83;;
45842;SDS011;31563;51.744;8.252;2023-08-31T00:51:48;5.22;;;3.38;;
45842;SDS011;31563;51.744;8.252;2023-08-31T00:54:17;4.85;;;3.47;;
45842;SDS011;31563;51.744;8.252;2023-08-31T00:56:45;6.90;;;3.30;;
45842;SDS011;31563;51.744;8.252;2023-08-31T00:59:13;5.05;;;3.40;;
45842;SDS011;31563;51.744;8.252;2023-08-31T01:01:46;5.85;;;3.20;;
45842;SDS011;31563;51.744;8.252;2023-08-31T01:04:25;6.63;;;3.35;;
45842;SDS011;31563;51.744;8.252;2023-08-31T01:07:01;6.75;;;3.80;;
45842;SDS011;31563;51.744;8.252;2023-08-31T01:09:36;7.05;;;3.60;;
45842;SDS011;31563;51.744;8.252;2023-08-31T01:12:11;6.55;;;3.45;;
45842;SDS011;31563;51.744;8.252;2023-08-31T01:14:44;6.80;;;3.38;;
45842;SDS011;31563;51.744;8.252;2023-08-31T01:17:17;5.47;;;3.63;;
45842;SDS011;31563;51.744;8.252;2023-08-31T01:19:49;6.15;;;3.80;;
45842;SDS011;31563;51.744;8.252;2023-08-31T01:24:56;4.90;;;3.35;;
45842;SDS011;31563;51.744;8.252;2023-08-31T01:27:27;7.22;;;3.42;;
45842;SDS011;31563;51.744;8.252;2023-08-31T01:29:56;6.50;;;3.72;;
45842;SDS011;31563;51.744;8.252;2023-08-31T01:32:24;5.40;;;3.30;;
45842;SDS011;31563;51.744;8.252;2023-08-31T01:34:52;8.05;;;4.00;;
45842;SDS011;31563;51.744;8.252;2023-08-31T01:37:24;6.05;;;3.90;;
45842;SDS011;31563;51.744;8.252;2023-08-31T01:40:01;6.82;;;4.30;;
45842;SDS011;31563;51.744;8.252;2023-08-31T01:42:33;5.07;;;3.10;;
45842;SDS011;31563;51.744;8.252;2023-08-31T01:45:02;4.50;;;3.20;;
45842;SDS011;31563;51.744;8.252;2023-08-31T01:47:31;6.97;;;3.63;;
45842;SDS011;31563;51.744;8.252;2023-08-31T01:49:59;7.75;;;3.83;;
45842;SDS011;31563;51.744;8.252;2023-08-31T01:52:28;6.47;;;3.83;;
45842;SDS011;31563;51.744;8.252;2023-08-31T01:54:56;6.40;;;3.50;;
45842;SDS011;31563;51.744;8.252;2023-08-31T01:57:26;5.13;;;3.67;;
45842;SDS011;31563;51.744;8.252;2023-08-31T01:59:53;6.67;;;4.27;;
45842;SDS011;31563;51.744;8.252;2023-08-31T02:02:21;6.00;;;3.58;;
45842;SDS011;31563;51.744;8.252;2023-08-31T02:04:49;6.38;;;3.45;;
45842;SDS011;31563;51.744;8.252;2023-08-31T02:07:18;6.22;;;3.10;;
45842;SDS011;31563;51.744;8.252;2023-08-31T02:09:45;6.68;;;3.38;;
45842;SDS011;31563;51.744;8.252;2023-08-31T02:12:13;6.70;;;3.58;;
45842;SDS011;31563;51.744;8.252;2023-08-31T02:14:42;7.00;;;3.30;;
45842;SDS011;31563;51.744;8.252;2023-08-31T02:17:10;5.57;;;3.17;;
45842;SDS011;31563;51.744;8.252;2023-08-31T02:19:38;6.70;;;3.88;;
45842;SDS011;31563;51.744;8.252;2023-08-31T02:22:07;6.78;;;3.80;;
45842;SDS011;31563;51.744;8.252;2023-08-31T02:24:35;4.68;;;3.33;;
45842;SDS011;31563;51.744;8.252;2023-08-31T02:27:03;7.40;;;3.65;;
45842;SDS011;31563;51.744;8.252;2023-08-31T02:29:31;5.03;;;3.47;;
45842;SDS011;31563;51.744;8.252;2023-08-31T02:32:01;7.65;;;4.05;;
45842;SDS011;31563;51.744;8.252;2023-08-31T02:34:31;6.53;;;3.70;;
45842;SDS011;31563;51.744;8.252;2023-08-31T02:36:59;5.60;;;3.67;;
45842;SDS011;31563;51.744;8.252;2023-08-31T02:39:27;5.10;;;3.20;;
45842;SDS011;31563;51.744;8.252;2023-08-31T02:41:54;6.38;;;4.13;;
45842;SDS011;31563;51.744;8.252;2023-08-31T02:44:23;5.72;;;3.50;;
45842;SDS011;31563;51.744;8.252;2023-08-31T02:46:51;5.35;;;3.25;;
45842;SDS011;31563;51.744;8.252;2023-08-31T02:49:20;5.95;;;3.28;;
45842;SDS011;31563;51.744;8.252;2023-08-31T02:51:48;5.80;;;3.10;;
45842;SDS011;31563;51.744;8.252;2023-08-31T02:54:16;4.85;;;3.22;;
45842;SDS011;31563;51.744;8.252;2023-08-31T02:56:45;6.13;;;3.17;;
45842;SDS011;31563;51.744;8.252;2023-08-31T02:59:13;6.18;;;3.45;;
45842;SDS011;31563;51.744;8.252;2023-08-31T03:01:41;5.82;;;3.33;;
45842;SDS011;31563;51.744;8.252;2023-08-31T03:04:12;6.30;;;3.05;;
45842;SDS011;31563;51.744;8.252;2023-08-31T03:06:41;6.18;;;2.83;;
45842;SDS011;31563;51.744;8.252;2023-08-31T03:09:09;4.80;;;3.13;;
45842;SDS011;31563;51.744;8.252;2023-08-31T03:11:37;5.22;;;2.88;;
45842;SDS011;31563;51.744;8.252;2023-08-31T03:14:05;3.95;;;2.38;;
45842;SDS011;31563;51.744;8.252;2023-08-31T03:16:33;4.47;;;2.22;;
45842;SDS011;31563;51.744;8.252;2023-08-31T03:19:01;4.32;;;2.40;;
45842;SDS011;31563;51.744;8.252;2023-08-31T03:21:29;4.78;;;2.45;;
45842;SDS011;31563;51.744;8.252;2023-08-31T03:23:59;5.00;;;2.47;;
45842;SDS011;31563;51.744;8.252;2023-08-31T03:26:27;5.10;;;2.78;;
45842;SDS011;31563;51.744;8.252;2023-08-31T03:28:55;5.28;;;2.60;;
45842;SDS011;31563;51.744;8.252;2023-08-31T03:31:23;5.22;;;2.60;;
45842;SDS011;31563;51.744;8.252;2023-08-31T03:33:50;5.28;;;2.47;;
45842;SDS011;31563;51.744;8.252;2023-08-31T03:36:18;4.00;;;2.45;;
45842;SDS011;31563;51.744;8.252;2023-08-31T03:38:46;5.53;;;2.42;;
45842;SDS011;31563;51.744;8.252;2023-08-31T03:41:15;4.75;;;2.50;;
45842;SDS011;31563;51.744;8.252;2023-08-31T03:43:43;3.67;;;2.03;;
45842;SDS011;31563;51.744;8.252;2023-08-31T03:46:11;5.63;;;2.55;;
45842;SDS011;31563;51.744;8.252;2023-08-31T03:48:39;4.88;;;2.38;;
45842;SDS011;31563;51.744;8.252;2023-08-31T03:51:07;3.65;;;2.35;;
45842;SDS011;31563;51.744;8.252;2023-08-31T03:53:35;5.32;;;2.58;;
45842;SDS011;31563;51.744;8.252;2023-08-31T03:56:03;4.15;;;2.30;;
45842;SDS011;31563;51.744;8.252;2023-08-31T03:58:32;3.88;;;2.33;;
45842;SDS011;31563;51.744;8.252;2023-08-31T04:01:00;8.00;;;3.03;;
45842;SDS011;31563;51.744;8.252;2023-08-31T04:03:28;7.43;;;3.05;;
45842;SDS011;31563;51.744;8.252;2023-08-31T04:05:56;4.75;;;2.70;;
45842;SDS011;31563;51.744;8.252;2023-08-31T04:08:24;5.80;;;2.50;;
45842;SDS011;31563;51.744;8.252;2023-08-31T04:10:52;6.10;;;2.42;;
45842;SDS011;31563;51.744;8.252;2023-08-31T04:13:19;5.32;;;2.40;;
45842;SDS011;31563;51.744;8.252;2023-08-31T04:15:49;5.55;;;2.80;;
45842;SDS011;31563;51.744;8.252;2023-08-31T04:18:17;5.28;;;2.63;;
45842;SDS011;31563;51.744;8.252;2023-08-31T04:20:48;5.85;;;2.50;;
45842;SDS011;31563;51.744;8.252;2023-08-31T04:23:18;5.45;;;2.95;;
45842;SDS011;31563;51.744;8.252;2023-08-31T04:25:46;5.07;;;2.67;;
45842;SDS011;31563;51.744;8.252;2023-08-31T04:28:17;3.78;;;2.40;;
45842;SDS011;31563;51.744;8.252;2023-08-31T04:30:45;5.47;;;2.45;;
45842;SDS011;31563;51.744;8.252;2023-08-31T04:33:14;3.78;;;2.13;;
45842;SDS011;31563;51.744;8.252;2023-08-31T04:35:43;4.03;;;2.33;;
45842;SDS011;31563;51.744;8.252;2023-08-31T04:38:11;4.03;;;2.75;;
45842;SDS011;31563;51.744;8.252;2023-08-31T04:40:39;4.32;;;2.20;;
45842;SDS011;31563;51.744;8.252;2023-08-31T04:43:07;6.07;;;2.40;;
45842;SDS011;31563;51.744;8.252;2023-08-31T04:45:35;4.82;;;2.60;;
45842;SDS011;31563;51.744;8.252;2023-08-31T04:48:03;5.47;;;2.90;;
45842;SDS011;31563;51.744;8.252;2023-08-31T04:50:33;5.00;;;2.72;;
45842;SDS011;31563;51.744;8.252;2023-08-31T04:53:00;7.00;;;3.50;;
45842;SDS011;31563;51.744;8.252;2023-08-31T04:55:29;10.13;;;6.07;;
45842;SDS011;31563;51.744;8.252;2023-08-31T04:57:57;11.25;;;7.43;;
45842;SDS011;31563;51.744;8.252;2023-08-31T05:00:25;12.13;;;7.40;;
45842;SDS011;31563;51.744;8.252;2023-08-31T05:02:53;15.40;;;8.27;;
45842;SDS011;31563;51.744;8.252;2023-08-31T05:05:21;10.88;;;6.43;;
45842;SDS011;31563;51.744;8.252;2023-08-31T05:07:50;9.20;;;6.18;;
45842;SDS011;31563;51.744;8.252;2023-08-31T05:10:18;10.23;;;5.63;;
45842;SDS011;31563;51.744;8.252;2023-08-31T05:12:46;6.43;;;5.00;;
45842;SDS011;31563;51.744;8.252;2023-08-31T05:15:14;7.15;;;5.07;;
45842;SDS011;31563;51.744;8.252;2023-08-31T05:17:42;10.93;;;6.70;;
45842;SDS011;31563;51.744;8.252;2023-08-31T05:20:10;8.50;;;6.20;;
45842;SDS011;31563;51.744;8.252;2023-08-31T05:22:39;11.15;;;6.10;;
45842;SDS011;31563;51.744;8.252;2023-08-31T05:25:08;6.40;;;5.10;;
45842;SDS011;31563;51.744;8.252;2023-08-31T05:27:36;9.80;;;5.82;;
45842;SDS011;31563;51.744;8.252;2023-08-31T05:30:04;9.65;;;5.50;;
45842;SDS011;31563;51.744;8.252;2023-08-31T05:32:32;6.78;;;4.53;;
45842;SDS011;31563;51.744;8.252;2023-08-31T05:35:01;7.00;;;4.63;;
45842;SDS011;31563;51.744;8.252;2023-08-31T05:37:31;10.32;;;4.60;;
45842;SDS011;31563;51.744;8.252;2023-08-31T05:40:01;7.38;;;4.47;;
45842;SDS011;31563;51.744;8.252;2023-08-31T05:42:33;6.20;;;3.78;;
45842;SDS011;31563;51.744;8.252;2023-08-31T05:45:01;4.30;;;2.33;;
45842;SDS011;31563;51.744;8.252;2023-08-31T05:47:30;6.78;;;3.53;;
45842;SDS011;31563;51.744;8.252;2023-08-31T05:49:58;6.90;;;4.88;;
45842;SDS011;31563;51.744;8.252;2023-08-31T05:52:26;6.63;;;5.60;;
45842;SDS011;31563;51.744;8.252;2023-08-31T05:54:54;6.95;;;6.22;;
45842;SDS011;31563;51.744;8.252;2023-08-31T05:57:22;6.88;;;6.18;;
45842;SDS011;31563;51.744;8.252;2023-08-31T05:59:51;7.32;;;5.57;;
45842;SDS011;31563;51.744;8.252;2023-08-31T06:02:19;7.03;;;6.33;;
45842;SDS011;31563;51.744;8.252;2023-08-31T06:04:47;8.35;;;6.15;;
45842;SDS011;31563;51.744;8.252;2023-08-31T06:07:15;9.48;;;5.22;;
45842;SDS011;31563;51.744;8.252;2023-08-31T06:09:43;10.45;;;6.07;;
45842;SDS011;31563;51.744;8.252;2023-08-31T06:12:11;7.57;;;6.78;;
45842;SDS011;31563;51.744;8.252;2023-08-31T06:14:38;8.18;;;6.15;;
45842;SDS011;31563;51.744;8.252;2023-08-31T06:17:08;7.78;;;5.45;;
45842;SDS011;31563;51.744;8.252;2023-08-31T06:19:37;8.65;;;6.30;;
45842;SDS011;31563;51.744;8.252;2023-08-31T06:22:05;7.75;;;6.63;;
45842;SDS011;31563;51.744;8.252;2023-08-31T06:24:33;8.63;;;6.53;;
45842;SDS011;31563;51.744;8.252;2023-08-31T06:27:03;8.57;;;7.10;;
45842;SDS011;31563;51.744;8.252;2023-08-31T06:29:31;7.43;;;6.57;;
45842;SDS011;31563;51.744;8.252;2023-08-31T06:31:59;6.97;;;6.32;;
45842;SDS011;31563;51.744;8.252;2023-08-31T06:34:28;7.57;;;5.82;;
45842;SDS011;31563;51.744;8.252;2023-08-31T06:39:25;8.20;;;6.45;;
45842;SDS011;31563;51.744;8.252;2023-08-31T06:41:53;9.75;;;6.82;;
45842;SDS011;31563;51.744;8.252;2023-08-31T06:44:21;8.82;;;7.13;;
45842;SDS011;31563;51.744;8.252;2023-08-31T06:46:48;11.32;;;8.35;;
45842;SDS011;31563;51.744;8.252;2023-08-31T06:49:16;10.52;;;7.93;;
45842;SDS011;31563;51.744;8.252;2023-08-31T06:51:47;8.27;;;7.15;;
45842;SDS011;31563;51.744;8.252;2023-08-31T06:54:15;8.33;;;6.73;;
45842;SDS011;31563;51.744;8.252;2023-08-31T06:56:43;8.50;;;7.60;;
45842;SDS011;31563;51.744;8.252;2023-08-31T06:59:11;10.77;;;8.13;;
45842;SDS011;31563;51.744;8.252;2023-08-31T07:01:39;10.48;;;7.13;;
45842;SDS011;31563;51.744;8.252;2023-08-31T07:04:06;8.75;;;6.95;;
45842;SDS011;31563;51.744;8.252;2023-08-31T07:06:34;8.30;;;7.35;;
45842;SDS011;31563;51.744;8.252;2023-08-31T07:09:04;6.80;;;5.93;;
45842;SDS011;31563;51.744;8.252;2023-08-31T07:11:34;8.32;;;5.82;;
45842;SDS011;31563;51.744;8.252;2023-08-31T07:14:02;7.15;;;5.93;;
45842;SDS011;31563;51.744;8.252;2023-08-31T07:16:30;6.90;;;5.70;;
45842;SDS011;31563;51.744;8.252;2023-08-31T07:18:57;8.63;;;5.78;;
45842;SDS011;31563;51.744;8.252;2023-08-31T07:21:25;6.63;;;5.80;;
45842;SDS011;31563;51.744;8.252;2023-08-31T07:23:53;6.63;;;5.10;;
45842;SDS011;31563;51.744;8.252;2023-08-31T07:26:23;6.50;;;4.57;;
45842;SDS011;31563;51.744;8.252;2023-08-31T07:28:51;6.50;;;4.50;;
45842;SDS011;31563;51.744;8.252;2023-08-31T07:31:19;6.07;;;3.97;;
45842;SDS011;31563;51.744;8.252;2023-08-31T07:33:47;6.35;;;4.07;;
45842;SDS011;31563;51.744;8.252;2023-08-31T07:36:14;5.53;;;4.07;;
45842;SDS011;31563;51.744;8.252;2023-08-31T07:38:42;5.60;;;3.60;;
45842;SDS011;31563;51.744;8.252;2023-08-31T07:41:10;5.22;;;3.60;;
45842;SDS011;31563;51.744;8.252;2023-08-31T07:43:39;4.68;;;3.30;;
45842;SDS011;31563;51.744;8.252;2023-08-31T07:46:19;5.30;;;3.40;;
45842;SDS011;31563;51.744;8.252;2023-08-31T07:48:47;5.63;;;3.40;;
45842;SDS011;31563;51.744;8.252;2023-08-31T07:51:16;6.13;;;3.80;;
45842;SDS011;31563;51.744;8.252;2023-08-31T07:53:49;5.22;;;4.65;;
45842;SDS011;31563;51.744;8.252;2023-08-31T07:56:17;5.55;;;4.45;;
45842;SDS011;31563;51.744;8.252;2023-08-31T07:58:46;5.03;;;3.47;;
45842;SDS011;31563;51.744;8.252;2023-08-31T08:01:14;5.23;;;3.73;;
45842;SDS011;31563;51.744;8.252;2023-08-31T08:03:42;5.00;;;3.50;;
45842;SDS011;31563;51.744;8.252;2023-08-31T08:06:10;6.07;;;3.50;;
45842;SDS011;31563;51.744;8.252;2023-08-31T08:08:38;4.57;;;2.95;;
45842;SDS011;31563;51.744;8.252;2023-08-31T08:11:06;4.95;;;3.70;;
45842;SDS011;31563;51.744;8.252;2023-08-31T08:13:34;4.97;;;2.83;;
45842;SDS011;31563;51.744;8.252;2023-08-31T08:16:03;3.78;;;3.33;;
45842;SDS011;31563;51.744;8.252;2023-08-31T08:18:31;5.47;;;3.22;;
45842;SDS011;31563;51.744;8.252;2023-08-31T08:20:59;4.60;;;3.00;;
45842;SDS011;31563;51.744;8.252;2023-08-31T08:23:27;4.38;;;2.88;;
45842;SDS011;31563;51.744;8.252;2023-08-31T08:25:55;3.63;;;2.80;;
45842;SDS011;31563;51.744;8.252;2023-08-31T08:28:25;3.53;;;2.83;;
45842;SDS011;31563;51.744;8.252;2023-08-31T08:30:54;5.63;;;3.07;;
45842;SDS011;31563;51.744;8.252;2023-08-31T08:33:23;5.90;;;2.90;;
45842;SDS011;31563;51.744;8.252;2023-08-31T08:35:51;3.42;;;2.60;;
45842;SDS011;31563;51.744;8.252;2023-08-31T08:38:23;5.13;;;3.17;;
45842;SDS011;31563;51.744;8.252;2023-08-31T08:40:52;6.40;;;3.88;;
45842;SDS011;31563;51.744;8.252;2023-08-31T08:43:21;8.40;;;3.70;;
45842;SDS011;31563;51.744;8.252;2023-08-31T08:45:54;4.53;;;3.05;;
45842;SDS011;31563;51.744;8.252;2023-08-31T08:48:26;5.22;;;2.92;;
45842;SDS011;31563;51.744;8.252;2023-08-31T08:50:54;4.35;;;2.72;;
45842;SDS011;31563;51.744;8.252;2023-08-31T08:53:23;3.88;;;2.88;;
45842;SDS011;31563;51.744;8.252;2023-08-31T08:55:50;4.75;;;2.80;;
45842;SDS011;31563;51.744;8.252;2023-08-31T08:58:18;6.68;;;2.22;;
45842;SDS011;31563;51.744;8.252;2023-08-31T09:00:46;4.38;;;2.50;;
45842;SDS011;31563;51.744;8.252;2023-08-31T09:03:15;4.65;;;2.30;;
45842;SDS011;31563;51.744;8.252;2023-08-31T09:05:45;3.70;;;2.35;;
45842;SDS011;31563;51.744;8.252;2023-08-31T09:08:13;3.70;;;2.35;;
45842;SDS011;31563;51.744;8.252;2023-08-31T09:10:42;5.88;;;2.22;;
45842;SDS011;31563;51.744;8.252;2023-08-31T09:13:11;3.28;;;1.85;;
45842;SDS011;31563;51.744;8.252;2023-08-31T09:15:42;3.10;;;1.70;;
45842;SDS011;31563;51.744;8.252;2023-08-31T09:18:14;2.92;;;1.63;;
45842;SDS011;31563;51.744;8.252;2023-08-31T09:20:45;3.28;;;1.55;;
45842;SDS011;31563;51.744;8.252;2023-08-31T09:23:14;4.82;;;1.67;;
45842;SDS011;31563;51.744;8.252;2023-08-31T09:25:42;3.95;;;1.50;;
45842;SDS011;31563;51.744;8.252;2023-08-31T09:28:11;3.92;;;1.77;;
45842;SDS011;31563;51.744;8.252;2023-08-31T09:30:40;2.97;;;1.60;;
45842;SDS011;31563;51.744;8.252;2023-08-31T09:33:10;4.63;;;1.67;;
45842;SDS011;31563;51.744;8.252;2023-08-31T09:35:47;2.10;;;1.00;;
45842;SDS011;31563;51.744;8.252;2023-08-31T09:38:17;2.60;;;1.17;;
45842;SDS011;31563;51.744;8.252;2023-08-31T09:40:46;3.97;;;1.92;;
45842;SDS011;31563;51.744;8.252;2023-08-31T09:43:18;2.78;;;1.08;;
45842;SDS011;31563;51.744;8.252;2023-08-31T09:45:48;2.95;;;1.20;;
45842;SDS011;31563;51.744;8.252;2023-08-31T09:48:17;3.10;;;1.58;;
45842;SDS011;31563;51.744;8.252;2023-08-31T09:50:45;3.03;;;1.08;;
45842;SDS011;31563;51.744;8.252;2023-08-31T09:53:15;2.78;;;1.25;;
45842;SDS011;31563;51.744;8.252;2023-08-31T09:55:44;2.88;;;1.00;;
45842;SDS011;31563;51.744;8.252;2023-08-31T09:58:13;3.85;;;1.17;;
45842;SDS011;31563;51.744;8.252;2023-08-31T10:00:44;3.22;;;0.88;;
45842;SDS011;31563;51.744;8.252;2023-08-31T10:03:13;3.00;;;0.93;;
45842;SDS011;31563;51.744;8.252;2023-08-31T10:05:45;4.18;;;0.90;;
45842;SDS011;31563;51.744;8.252;2023-08-31T10:08:16;3.45;;;1.20;;
45842;SDS011;31563;51.744;8.252;2023-08-31T10:10:45;4.30;;;1.17;;
45842;SDS011;31563;51.744;8.252;2023-08-31T10:13:13;2.50;;;1.00;;
45842;SDS011;31563;51.744;8.252;2023-08-31T10:18:10;3.90;;;0.80;;
45842;SDS011;31563;51.744;8.252;2023-08-31T10:20:39;3.15;;;0.80;;
45842;SDS011;31563;51.744;8.252;2023-08-31T10:23:10;2.50;;;0.85;;
45842;SDS011;31563;51.744;8.252;2023-08-31T10:28:38;1.90;;;0.93;;
45842;SDS011;31563;51.744;8.252;2023-08-31T10:31:07;4.07;;;1.00;;
45842;SDS011;31563;51.744;8.252;2023-08-31T10:33:40;3.45;;;0.75;;
45842;SDS011;31563;51.744;8.252;2023-08-31T10:36:09;1.77;;;0.77;;
45842;SDS011;31563;51.744;8.252;2023-08-31T10:38:39;3.47;;;1.15;;
45842;SDS011;31563;51.744;8.252;2023-08-31T10:41:19;2.72;;;0.80;;
45842;SDS011;31563;51.744;8.252;2023-08-31T10:43:49;3.30;;;0.90;;
45842;SDS011;31563;51.744;8.252;2023-08-31T10:46:19;1.52;;;0.60;;
45842;SDS011;31563;51.744;8.252;2023-08-31T10:48:54;2.75;;;0.68;;
45842;SDS011;31563;51.744;8.252;2023-08-31T10:51:23;1.98;;;0.65;;
45842;SDS011;31563;51.744;8.252;2023-08-31T10:56:21;4.57;;;0.90;;
45842;SDS011;31563;51.744;8.252;2023-08-31T10:58:56;4.32;;;0.68;;
45842;SDS011;31563;51.744;8.252;2023-08-31T11:01:50;3.80;;;0.82;;
45842;SDS011;31563;51.744;8.252;2023-08-31T11:04:20;1.83;;;0.75;;
45842;SDS011;31563;51.744;8.252;2023-08-31T11:06:48;2.53;;;0.68;;
45842;SDS011;31563;51.744;8.252;2023-08-31T11:09:19;1.90;;;0.55;;
45842;SDS011;31563;51.744;8.252;2023-08-31T11:11:49;1.95;;;0.80;;
45842;SDS011;31563;51.744;8.252;2023-08-31T11:14:17;1.38;;;0.50;;
45842;SDS011;31563;51.744;8.252;2023-08-31T11:16:45;2.40;;;0.77;;
45842;SDS011;31563;51.744;8.252;2023-08-31T11:19:13;1.50;;;0.63;;
45842;SDS011;31563;51.744;8.252;2023-08-31T11:21:41;2.88;;;0.93;;
45842;SDS011;31563;51.744;8.252;2023-08-31T11:24:10;2.60;;;0.60;;
45842;SDS011;31563;51.744;8.252;2023-08-31T11:26:38;1.02;;;0.55;;
45842;SDS011;31563;51.744;8.252;2023-08-31T11:29:07;1.15;;;0.50;;
45842;SDS011;31563;51.744;8.252;2023-08-31T11:31:37;1.92;;;0.60;;
45842;SDS011;31563;51.744;8.252;2023-08-31T11:34:06;2.05;;;0.60;;
45842;SDS011;31563;51.744;8.252;2023-08-31T11:36:39;1.70;;;0.55;;
45842;SDS011;31563;51.744;8.252;2023-08-31T11:39:08;2.00;;;0.50;;
45842;SDS011;31563;51.744;8.252;2023-08-31T11:41:37;1.65;;;0.50;;
45842;SDS011;31563;51.744;8.252;2023-08-31T11:44:09;1.90;;;0.60;;
45842;SDS011;31563;51.744;8.252;2023-08-31T11:46:39;2.05;;;0.40;;
45842;SDS011;31563;51.744;8.252;2023-08-31T11:49:09;1.73;;;0.40;;
45842;SDS011;31563;51.744;8.252;2023-08-31T11:51:37;0.57;;;0.30;;
45842;SDS011;31563;51.744;8.252;2023-08-31T11:54:07;2.28;;;0.40;;
45842;SDS011;31563;51.744;8.252;2023-08-31T11:56:38;1.98;;;0.40;;
45842;SDS011;31563;51.744;8.252;2023-08-31T11:59:08;1.70;;;0.47;;
45842;SDS011;31563;51.744;8.252;2023-08-31T12:01:38;1.10;;;0.50;;
45842;SDS011;31563;51.744;8.252;2023-08-31T12:04:11;0.73;;;0.20;;
45842;SDS011;31563;51.744;8.252;2023-08-31T12:06:40;1.73;;;0.43;;
45842;SDS011;31563;51.744;8.252;2023-08-31T12:09:10;2.30;;;0.30;;
45842;SDS011;31563;51.744;8.252;2023-08-31T12:11:38;1.17;;;0.30;;
45842;SDS011;31563;51.744;8.252;2023-08-31T12:14:19;0.75;;;0.30;;
45842;SDS011;31563;51.744;8.252;2023-08-31T12:16:47;1.63;;;0.40;;
45842;SDS011;31563;51.744;8.252;2023-08-31T12:19:15;1.98;;;0.60;;
45842;SDS011;31563;51.744;8.252;2023-08-31T12:21:44;2.20;;;0.55;;
45842;SDS011;31563;51.744;8.252;2023-08-31T12:24:13;2.95;;;0.50;;
45842;SDS011;31563;51.744;8.252;2023-08-31T12:26:43;1.23;;;0.70;;
45842;SDS011;31563;51.744;8.252;2023-08-31T12:29:11;1.20;;;0.55;;
45842;SDS011;31563;51.744;8.252;2023-08-31T12:31:40;1.20;;;0.52;;
45842;SDS011;31563;51.744;8.252;2023-08-31T12:34:09;1.42;;;0.50;;
45842;SDS011;31563;51.744;8.252;2023-08-31T12:36:37;1.33;;;0.55;;
45842;SDS011;31563;51.744;8.252;2023-08-31T12:39:07;2.55;;;0.73;;
45842;SDS011;31563;51.744;8.252;2023-08-31T12:41:36;2.03;;;0.80;;
45842;SDS011;31563;51.744;8.252;2023-08-31T12:44:04;1.70;;;0.70;;
45842;SDS011;31563;51.744;8.252;2023-08-31T12:46:32;2.95;;;0.98;;
45842;SDS011;31563;51.744;8.252;2023-08-31T12:49:02;2.03;;;0.70;;
45842;SDS011;31563;51.744;8.252;2023-08-31T12:51:30;2.90;;;0.77;;
45842;SDS011;31563;51.744;8.252;2023-08-31T12:53:58;3.33;;;0.95;;
45842;SDS011;31563;51.744;8.252;2023-08-31T12:56:26;3.50;;;1.13;;
45842;SDS011;31563;51.744;8.252;2023-08-31T12:58:54;3.47;;;0.98;;
45842;SDS011;31563;51.744;8.252;2023-08-31T13:01:22;4.07;;;0.70;;
45842;SDS011;31563;51.744;8.252;2023-08-31T13:03:50;1.85;;;0.90;;
45842;SDS011;31563;51.744;8.252;2023-08-31T13:06:20;2.53;;;0.88;;
45842;SDS011;31563;51.744;8.252;2023-08-31T13:08:50;2.63;;;0.82;;
45842;SDS011;31563;51.744;8.252;2023-08-31T13:11:18;1.42;;;0.73;;
45842;SDS011;31563;51.744;8.252;2023-08-31T13:13:49;2.15;;;0.80;;
45842;SDS011;31563;51.744;8.252;2023-08-31T13:16:18;2.60;;;0.80;;
45842;SDS011;31563;51.744;8.252;2023-08-31T13:18:48;2.55;;;0.98;;
45842;SDS011;31563;51.744;8.252;2023-08-31T13:21:16;2.88;;;0.90;;
45842;SDS011;31563;51.744;8.252;2023-08-31T13:23:45;3.65;;;0.98;;
45842;SDS011;31563;51.744;8.252;2023-08-31T13:26:13;3.17;;;1.05;;
45842;SDS011;31563;51.744;8.252;2023-08-31T13:28:40;4.88;;;1.10;;
45842;SDS011;31563;51.744;8.252;2023-08-31T13:31:09;3.05;;;1.15;;
45842;SDS011;31563;51.744;8.252;2023-08-31T13:33:38;3.08;;;0.85;;
45842;SDS011;31563;51.744;8.252;2023-08-31T13:36:06;1.80;;;1.00;;
45842;SDS011;31563;51.744;8.252;2023-08-31T13:38:35;2.42;;;1.13;;
45842;SDS011;31563;51.744;8.252;2023-08-31T13:41:04;2.40;;;0.90;;
45842;SDS011;31563;51.744;8.252;2023-08-31T13:43:34;3.80;;;1.02;;
45842;SDS011;31563;51.744;8.252;2023-08-31T13:46:01;2.95;;;0.95;;
45842;SDS011;31563;51.744;8.252;2023-08-31T13:48:30;2.33;;;1.10;;
45842;SDS011;31563;51.744;8.252;2023-08-31T13:50:59;5.10;;;1.40;;
45842;SDS011;31563;51.744;8.252;2023-08-31T13:53:27;5.90;;;1.60;;
45842;SDS011;31563;51.744;8.252;2023-08-31T13:55:54;4.40;;;1.20;;
45842;SDS011;31563;51.744;8.252;2023-08-31T13:58:24;2.58;;;0.90;;
45842;SDS011;31563;51.744;8.252;2023-08-31T14:00:52;1.92;;;0.98;;
45842;SDS011;31563;51.744;8.252;2023-08-31T14:03:20;2.15;;;1.00;;
45842;SDS011;31563;51.744;8.252;2023-08-31T14:05:49;3.72;;;1.10;;
45842;SDS011;31563;51.744;8.252;2023-08-31T14:08:17;2.88;;;1.00;;
45842;SDS011;31563;51.744;8.252;2023-08-31T14:10:45;7.80;;;2.17;;
45842;SDS011;31563;51.744;8.252;2023-08-31T14:13:13;5.70;;;1.70;;
45842;SDS011;31563;51.744;8.252;2023-08-31T14:15:45;4.40;;;1.58;;
45842;SDS011;31563;51.744;8.252;2023-08-31T14:18:13;2.70;;;0.93;;
45842;SDS011;31563;51.744;8.252;2023-08-31T14:20:42;4.13;;;0.85;;
45842;SDS011;31563;51.744;8.252;2023-08-31T14:23:10;3.45;;;0.98;;
45842;SDS011;31563;51.744;8.252;2023-08-31T14:25:38;3.75;;;1.02;;
45842;SDS011;31563;51.744;8.252;2023-08-31T14:28:06;5.57;;;1.30;;
45842;SDS011;31563;51.744;8.252;2023-08-31T14:30:35;4.22;;;1.15;;
45842;SDS011;31563;51.744;8.252;2023-08-31T14:33:05;4.78;;;2.58;;
45842;SDS011;31563;51.744;8.252;2023-08-31T14:35:35;8.70;;;3.42;;
45842;SDS011;31563;51.744;8.252;2023-08-31T14:38:04;3.65;;;1.42;;
45842;SDS011;31563;51.744;8.252;2023-08-31T14:40:32;4.07;;;1.30;;
45842;SDS011;31563;51.744;8.252;2023-08-31T14:43:01;6.47;;;1.17;;
45842;SDS011;31563;51.744;8.252;2023-08-31T14:45:41;4.25;;;1.33;;
45842;SDS011;31563;51.744;8.252;2023-08-31T14:48:10;5.32;;;1.50;;
45842;SDS011;31563;51.744;8.252;2023-08-31T14:50:41;2.63;;;1.20;;
45842;SDS011;31563;51.744;8.252;2023-08-31T14:53:09;3.38;;;1.35;;
45842;SDS011;31563;51.744;8.252;2023-08-31T14:55:37;3.20;;;1.50;;
45842;SDS011;31563;51.744;8.252;2023-08-31T14:58:05;2.13;;;1.10;;
45842;SDS011;31563;51.744;8.252;2023-08-31T15:00:35;5.38;;;1.42;;
45842;SDS011;31563;51.744;8.252;2023-08-31T15:03:03;4.03;;;1.25;;
45842;SDS011;31563;51.744;8.252;2023-08-31T15:05:33;2.95;;;1.25;;
45842;SDS011;31563;51.744;8.252;2023-08-31T15:10:31;2.17;;;1.25;;
45842;SDS011;31563;51.744;8.252;2023-08-31T15:12:59;2.05;;;0.95;;
45842;SDS011;31563;51.744;8.252;2023-08-31T15:15:27;3.92;;;1.20;;
45842;SDS011;31563;51.744;8.252;2023-08-31T15:17:55;2.58;;;0.68;;